sensor_id;sensor_type;location;lat;lon;timestamp;P1;durP1;ratioP1;P2;durP2;ratioP2
64210;SDS011;50528;48.514;14.394;2022-07-01T00:00:25;5.80;;;1.60;;
64210;SDS011;50528;48.514;14.394;2022-07-01T00:01:37;3.90;;;1.70;;
64210;SDS011;50528;48.514;14.394;2022-07-01T00:02:42;4.40;;;1.40;;
64210;SDS011;50528;48.514;14.394;2022-07-01T00:03:46;2.90;;;1.40;;
64210;SDS011;50528;48.514;14.394;2022-07-01T00:04:52;3.60;;;1.60;;
64210;SDS011;50528;48.514;14.394;2022-07-01T00:05:59;3.40;;;1.70;;
64210;SDS011;50528;48.514;14.394;2022-07-01T00:07:03;3.60;;;1.60;;
64210;SDS011;50528;48.514;14.394;2022-07-01T00:08:06;4.20;;;1.80;;
64210;SDS011;50528;48.514;14.394;2022-07-01T00:09:09;2.60;;;1.60;;
64210;SDS011;50528;48.514;14.394;2022-07-01T00:10:13;4.70;;;1.60;;
64210;SDS011;50528;48.514;14.394;2022-07-01T00:11:17;2.80;;;1.90;;
64210;SDS011;50528;48.514;14.394;2022-07-01T00:12:23;4.70;;;2.00;;
64210;SDS011;50528;48.514;14.394;2022-07-01T00:13:27;2.70;;;1.50;;
64210;SDS011;50528;48.514;14.394;2022-07-01T00:14:30;4.70;;;1.70;;
64210;SDS011;50528;48.514;14.394;2022-07-01T00:15:34;2.90;;;1.80;;
64210;SDS011;50528;48.514;14.394;2022-07-01T00:16:37;3.50;;;1.80;;
64210;SDS011;50528;48.514;14.394;2022-07-01T00:17:42;3.70;;;1.90;;
64210;SDS011;50528;48.514;14.394;2022-07-01T00:18:46;4.50;;;1.80;;
64210;SDS011;50528;48.514;14.394;2022-07-01T00:19:50;4.00;;;1.70;;
64210;SDS011;50528;48.514;14.394;2022-07-01T00:20:54;4.60;;;1.70;;
64210;SDS011;50528;48.514;14.394;2022-07-01T00:21:57;2.80;;;1.70;;
64210;SDS011;50528;48.514;14.394;2022-07-01T00:23:01;3.80;;;1.70;;
64210;SDS011;50528;48.514;14.394;2022-07-01T00:24:05;4.70;;;1.50;;
64210;SDS011;50528;48.514;14.394;2022-07-01T00:25:09;5.70;;;1.70;;
64210;SDS011;50528;48.514;14.394;2022-07-01T00:26:13;4.50;;;1.70;;
64210;SDS011;50528;48.514;14.394;2022-07-01T00:27:38;4.50;;;2.00;;
64210;SDS011;50528;48.514;14.394;2022-07-01T00:28:43;5.20;;;2.00;;
64210;SDS011;50528;48.514;14.394;2022-07-01T00:29:46;4.00;;;1.90;;
64210;SDS011;50528;48.514;14.394;2022-07-01T00:30:52;3.90;;;1.70;;
64210;SDS011;50528;48.514;14.394;2022-07-01T00:31:56;2.90;;;1.70;;
64210;SDS011;50528;48.514;14.394;2022-07-01T00:33:00;3.20;;;1.50;;
64210;SDS011;50528;48.514;14.394;2022-07-01T00:34:04;4.80;;;1.80;;
64210;SDS011;50528;48.514;14.394;2022-07-01T00:35:07;4.10;;;1.40;;
64210;SDS011;50528;48.514;14.394;2022-07-01T00:36:12;5.20;;;1.60;;
64210;SDS011;50528;48.514;14.394;2022-07-01T00:37:16;3.10;;;1.60;;
64210;SDS011;50528;48.514;14.394;2022-07-01T00:38:41;3.90;;;1.90;;
64210;SDS011;50528;48.514;14.394;2022-07-01T00:39:45;6.30;;;2.00;;
64210;SDS011;50528;48.514;14.394;2022-07-01T00:40:52;5.20;;;1.90;;
64210;SDS011;50528;48.514;14.394;2022-07-01T00:42:00;4.20;;;1.80;;
64210;SDS011;50528;48.514;14.394;2022-07-01T00:43:04;2.70;;;1.60;;
64210;SDS011;50528;48.514;14.394;2022-07-01T00:44:18;4.60;;;1.70;;
64210;SDS011;50528;48.514;14.394;2022-07-01T00:45:22;6.60;;;1.90;;
64210;SDS011;50528;48.514;14.394;2022-07-01T00:46:26;7.50;;;2.00;;
64210;SDS011;50528;48.514;14.394;2022-07-01T00:47:32;3.20;;;1.90;;
64210;SDS011;50528;48.514;14.394;2022-07-01T00:48:50;3.80;;;1.80;;
64210;SDS011;50528;48.514;14.394;2022-07-01T00:50:17;6.30;;;2.00;;
64210;SDS011;50528;48.514;14.394;2022-07-01T00:51:47;8.10;;;2.20;;
64210;SDS011;50528;48.514;14.394;2022-07-01T00:52:51;3.80;;;2.10;;
64210;SDS011;50528;48.514;14.394;2022-07-01T00:54:15;7.50;;;2.10;;
64210;SDS011;50528;48.514;14.394;2022-07-01T00:55:18;4.50;;;1.90;;
64210;SDS011;50528;48.514;14.394;2022-07-01T00:56:33;5.90;;;2.20;;
64210;SDS011;50528;48.514;14.394;2022-07-01T00:57:38;6.20;;;2.10;;
64210;SDS011;50528;48.514;14.394;2022-07-01T00:58:43;6.00;;;2.30;;
64210;SDS011;50528;48.514;14.394;2022-07-01T00:59:47;5.30;;;2.10;;
64210;SDS011;50528;48.514;14.394;2022-07-01T01:00:52;5.40;;;2.10;;
64210;SDS011;50528;48.514;14.394;2022-07-01T01:02:06;5.40;;;2.60;;
64210;SDS011;50528;48.514;14.394;2022-07-01T01:03:10;6.50;;;1.90;;
64210;SDS011;50528;48.514;14.394;2022-07-01T01:04:14;9.10;;;2.40;;
64210;SDS011;50528;48.514;14.394;2022-07-01T01:05:19;4.40;;;2.00;;
64210;SDS011;50528;48.514;14.394;2022-07-01T01:06:51;7.10;;;1.90;;
64210;SDS011;50528;48.514;14.394;2022-07-01T01:07:55;5.70;;;2.30;;
64210;SDS011;50528;48.514;14.394;2022-07-01T01:08:59;5.70;;;2.40;;
64210;SDS011;50528;48.514;14.394;2022-07-01T01:10:03;3.90;;;2.00;;
64210;SDS011;50528;48.514;14.394;2022-07-01T01:11:07;4.90;;;2.00;;
64210;SDS011;50528;48.514;14.394;2022-07-01T01:12:12;5.70;;;1.90;;
64210;SDS011;50528;48.514;14.394;2022-07-01T01:13:20;3.80;;;1.90;;
64210;SDS011;50528;48.514;14.394;2022-07-01T01:14:29;3.40;;;1.80;;
64210;SDS011;50528;48.514;14.394;2022-07-01T01:15:34;4.80;;;2.00;;
64210;SDS011;50528;48.514;14.394;2022-07-01T01:16:38;3.20;;;2.00;;
64210;SDS011;50528;48.514;14.394;2022-07-01T01:17:43;4.40;;;2.10;;
64210;SDS011;50528;48.514;14.394;2022-07-01T01:18:46;4.40;;;2.10;;
64210;SDS011;50528;48.514;14.394;2022-07-01T01:19:52;3.80;;;2.20;;
64210;SDS011;50528;48.514;14.394;2022-07-01T01:20:59;2.90;;;2.00;;
64210;SDS011;50528;48.514;14.394;2022-07-01T01:22:04;3.50;;;2.10;;
64210;SDS011;50528;48.514;14.394;2022-07-01T01:23:08;7.60;;;2.20;;
64210;SDS011;50528;48.514;14.394;2022-07-01T01:24:14;5.70;;;2.50;;
64210;SDS011;50528;48.514;14.394;2022-07-01T01:25:41;4.20;;;2.30;;
64210;SDS011;50528;48.514;14.394;2022-07-01T01:26:46;5.20;;;2.30;;
64210;SDS011;50528;48.514;14.394;2022-07-01T01:27:50;5.10;;;2.10;;
64210;SDS011;50528;48.514;14.394;2022-07-01T01:28:53;3.20;;;2.20;;
64210;SDS011;50528;48.514;14.394;2022-07-01T01:29:58;6.00;;;2.20;;
64210;SDS011;50528;48.514;14.394;2022-07-01T01:31:02;6.50;;;2.30;;
64210;SDS011;50528;48.514;14.394;2022-07-01T01:32:14;3.90;;;2.50;;
64210;SDS011;50528;48.514;14.394;2022-07-01T01:33:17;3.50;;;2.50;;
64210;SDS011;50528;48.514;14.394;2022-07-01T01:34:41;4.90;;;2.50;;
64210;SDS011;50528;48.514;14.394;2022-07-01T01:35:45;3.90;;;2.20;;
64210;SDS011;50528;48.514;14.394;2022-07-01T01:36:49;5.30;;;2.30;;
64210;SDS011;50528;48.514;14.394;2022-07-01T01:37:52;3.60;;;2.50;;
64210;SDS011;50528;48.514;14.394;2022-07-01T01:38:55;3.90;;;2.20;;
64210;SDS011;50528;48.514;14.394;2022-07-01T01:40:18;3.70;;;2.00;;
64210;SDS011;50528;48.514;14.394;2022-07-01T01:41:22;3.80;;;2.10;;
64210;SDS011;50528;48.514;14.394;2022-07-01T01:42:25;5.40;;;2.10;;
64210;SDS011;50528;48.514;14.394;2022-07-01T01:43:28;3.80;;;2.30;;
64210;SDS011;50528;48.514;14.394;2022-07-01T01:44:32;5.90;;;2.50;;
64210;SDS011;50528;48.514;14.394;2022-07-01T01:45:36;7.10;;;2.60;;
64210;SDS011;50528;48.514;14.394;2022-07-01T01:46:40;5.90;;;2.20;;
64210;SDS011;50528;48.514;14.394;2022-07-01T01:47:43;6.60;;;2.20;;
64210;SDS011;50528;48.514;14.394;2022-07-01T01:48:47;6.00;;;2.30;;
64210;SDS011;50528;48.514;14.394;2022-07-01T01:49:50;4.60;;;2.20;;
64210;SDS011;50528;48.514;14.394;2022-07-01T01:50:54;5.90;;;2.30;;
64210;SDS011;50528;48.514;14.394;2022-07-01T01:51:58;3.00;;;2.10;;
64210;SDS011;50528;48.514;14.394;2022-07-01T01:53:04;5.10;;;2.00;;
64210;SDS011;50528;48.514;14.394;2022-07-01T01:54:08;4.90;;;1.90;;
64210;SDS011;50528;48.514;14.394;2022-07-01T01:55:11;5.20;;;2.00;;
64210;SDS011;50528;48.514;14.394;2022-07-01T01:56:19;3.40;;;2.00;;
64210;SDS011;50528;48.514;14.394;2022-07-01T01:57:23;3.60;;;1.90;;
64210;SDS011;50528;48.514;14.394;2022-07-01T01:58:27;3.80;;;2.00;;
64210;SDS011;50528;48.514;14.394;2022-07-01T01:59:31;3.30;;;2.10;;
64210;SDS011;50528;48.514;14.394;2022-07-01T02:00:38;4.70;;;2.00;;
64210;SDS011;50528;48.514;14.394;2022-07-01T02:01:41;3.40;;;2.20;;
64210;SDS011;50528;48.514;14.394;2022-07-01T02:02:45;3.20;;;2.20;;
64210;SDS011;50528;48.514;14.394;2022-07-01T02:03:49;5.50;;;2.40;;
64210;SDS011;50528;48.514;14.394;2022-07-01T02:05:32;3.80;;;2.20;;
64210;SDS011;50528;48.514;14.394;2022-07-01T02:06:38;4.60;;;1.80;;
64210;SDS011;50528;48.514;14.394;2022-07-01T02:07:45;3.30;;;2.00;;
64210;SDS011;50528;48.514;14.394;2022-07-01T02:08:48;4.70;;;2.40;;
64210;SDS011;50528;48.514;14.394;2022-07-01T02:09:51;6.50;;;1.90;;
64210;SDS011;50528;48.514;14.394;2022-07-01T02:10:59;5.30;;;1.90;;
64210;SDS011;50528;48.514;14.394;2022-07-01T02:12:04;3.50;;;2.00;;
64210;SDS011;50528;48.514;14.394;2022-07-01T02:13:10;4.00;;;1.90;;
64210;SDS011;50528;48.514;14.394;2022-07-01T02:15:10;3.80;;;2.00;;
64210;SDS011;50528;48.514;14.394;2022-07-01T02:16:30;6.40;;;2.10;;
64210;SDS011;50528;48.514;14.394;2022-07-01T02:17:34;5.20;;;2.10;;
64210;SDS011;50528;48.514;14.394;2022-07-01T02:18:37;7.20;;;1.90;;
64210;SDS011;50528;48.514;14.394;2022-07-01T02:19:41;5.90;;;2.20;;
64210;SDS011;50528;48.514;14.394;2022-07-01T02:20:44;5.40;;;2.20;;
64210;SDS011;50528;48.514;14.394;2022-07-01T02:21:51;7.10;;;2.20;;
64210;SDS011;50528;48.514;14.394;2022-07-01T02:22:55;3.70;;;2.00;;
64210;SDS011;50528;48.514;14.394;2022-07-01T02:23:58;5.70;;;2.50;;
64210;SDS011;50528;48.514;14.394;2022-07-01T02:25:01;8.00;;;2.40;;
64210;SDS011;50528;48.514;14.394;2022-07-01T02:26:05;6.50;;;2.30;;
64210;SDS011;50528;48.514;14.394;2022-07-01T02:27:08;8.30;;;2.30;;
64210;SDS011;50528;48.514;14.394;2022-07-01T02:28:11;4.90;;;2.20;;
64210;SDS011;50528;48.514;14.394;2022-07-01T02:29:15;4.90;;;2.20;;
64210;SDS011;50528;48.514;14.394;2022-07-01T02:30:18;5.40;;;2.20;;
64210;SDS011;50528;48.514;14.394;2022-07-01T02:31:21;7.10;;;2.30;;
64210;SDS011;50528;48.514;14.394;2022-07-01T02:32:24;4.60;;;2.60;;
64210;SDS011;50528;48.514;14.394;2022-07-01T02:33:28;5.30;;;2.30;;
64210;SDS011;50528;48.514;14.394;2022-07-01T02:34:32;7.60;;;2.50;;
64210;SDS011;50528;48.514;14.394;2022-07-01T02:35:35;5.50;;;2.10;;
64210;SDS011;50528;48.514;14.394;2022-07-01T02:36:40;7.30;;;2.20;;
64210;SDS011;50528;48.514;14.394;2022-07-01T02:37:44;5.50;;;2.00;;
64210;SDS011;50528;48.514;14.394;2022-07-01T02:38:47;6.60;;;2.60;;
64210;SDS011;50528;48.514;14.394;2022-07-01T02:39:50;6.80;;;2.20;;
64210;SDS011;50528;48.514;14.394;2022-07-01T02:40:53;4.20;;;1.90;;
64210;SDS011;50528;48.514;14.394;2022-07-01T02:41:57;5.60;;;2.00;;
64210;SDS011;50528;48.514;14.394;2022-07-01T02:43:35;3.30;;;2.00;;
64210;SDS011;50528;48.514;14.394;2022-07-01T02:44:39;4.90;;;2.20;;
64210;SDS011;50528;48.514;14.394;2022-07-01T02:46:23;5.20;;;2.10;;
64210;SDS011;50528;48.514;14.394;2022-07-01T02:48:55;5.20;;;1.90;;
64210;SDS011;50528;48.514;14.394;2022-07-01T02:50:06;4.40;;;2.00;;
64210;SDS011;50528;48.514;14.394;2022-07-01T02:51:10;7.00;;;2.30;;
64210;SDS011;50528;48.514;14.394;2022-07-01T02:52:14;4.70;;;2.20;;
64210;SDS011;50528;48.514;14.394;2022-07-01T02:53:18;6.90;;;2.10;;
64210;SDS011;50528;48.514;14.394;2022-07-01T02:54:21;5.80;;;2.30;;
64210;SDS011;50528;48.514;14.394;2022-07-01T02:55:25;5.90;;;2.30;;
64210;SDS011;50528;48.514;14.394;2022-07-01T02:56:31;4.20;;;1.90;;
64210;SDS011;50528;48.514;14.394;2022-07-01T02:57:35;5.70;;;2.20;;
64210;SDS011;50528;48.514;14.394;2022-07-01T02:59:02;4.50;;;2.00;;
64210;SDS011;50528;48.514;14.394;2022-07-01T03:00:09;5.70;;;1.90;;
64210;SDS011;50528;48.514;14.394;2022-07-01T03:01:16;5.50;;;2.00;;
64210;SDS011;50528;48.514;14.394;2022-07-01T03:02:44;2.50;;;1.70;;
64210;SDS011;50528;48.514;14.394;2022-07-01T03:03:48;5.40;;;2.00;;
64210;SDS011;50528;48.514;14.394;2022-07-01T03:04:57;5.10;;;1.80;;
64210;SDS011;50528;48.514;14.394;2022-07-01T03:06:00;3.20;;;1.80;;
64210;SDS011;50528;48.514;14.394;2022-07-01T03:07:16;3.00;;;1.80;;
64210;SDS011;50528;48.514;14.394;2022-07-01T03:08:20;3.90;;;1.80;;
64210;SDS011;50528;48.514;14.394;2022-07-01T03:09:24;3.20;;;2.00;;
64210;SDS011;50528;48.514;14.394;2022-07-01T03:10:34;3.50;;;1.90;;
64210;SDS011;50528;48.514;14.394;2022-07-01T03:11:37;3.70;;;1.90;;
64210;SDS011;50528;48.514;14.394;2022-07-01T03:12:41;5.20;;;2.00;;
64210;SDS011;50528;48.514;14.394;2022-07-01T03:13:45;3.80;;;1.80;;
64210;SDS011;50528;48.514;14.394;2022-07-01T03:14:48;4.30;;;2.00;;
64210;SDS011;50528;48.514;14.394;2022-07-01T03:15:51;3.80;;;2.00;;
64210;SDS011;50528;48.514;14.394;2022-07-01T03:16:55;5.10;;;2.00;;
64210;SDS011;50528;48.514;14.394;2022-07-01T03:18:40;4.10;;;2.10;;
64210;SDS011;50528;48.514;14.394;2022-07-01T03:19:44;4.20;;;2.10;;
64210;SDS011;50528;48.514;14.394;2022-07-01T03:20:49;2.90;;;1.70;;
64210;SDS011;50528;48.514;14.394;2022-07-01T03:22:04;2.60;;;1.80;;
64210;SDS011;50528;48.514;14.394;2022-07-01T03:23:16;6.30;;;2.00;;
64210;SDS011;50528;48.514;14.394;2022-07-01T03:24:22;5.00;;;1.80;;
64210;SDS011;50528;48.514;14.394;2022-07-01T03:25:26;5.40;;;1.60;;
64210;SDS011;50528;48.514;14.394;2022-07-01T03:26:29;3.10;;;1.80;;
64210;SDS011;50528;48.514;14.394;2022-07-01T03:27:40;3.40;;;1.80;;
64210;SDS011;50528;48.514;14.394;2022-07-01T03:28:48;2.60;;;1.50;;
64210;SDS011;50528;48.514;14.394;2022-07-01T03:29:52;3.10;;;1.70;;
64210;SDS011;50528;48.514;14.394;2022-07-01T03:30:58;3.20;;;1.70;;
64210;SDS011;50528;48.514;14.394;2022-07-01T03:32:02;3.20;;;1.70;;
64210;SDS011;50528;48.514;14.394;2022-07-01T03:33:06;3.60;;;1.80;;
64210;SDS011;50528;48.514;14.394;2022-07-01T03:34:10;3.80;;;1.70;;
64210;SDS011;50528;48.514;14.394;2022-07-01T03:35:33;5.90;;;1.80;;
64210;SDS011;50528;48.514;14.394;2022-07-01T03:36:48;5.40;;;1.90;;
64210;SDS011;50528;48.514;14.394;2022-07-01T03:37:51;4.70;;;1.80;;
64210;SDS011;50528;48.514;14.394;2022-07-01T03:38:55;3.10;;;1.70;;
64210;SDS011;50528;48.514;14.394;2022-07-01T03:39:58;5.40;;;1.80;;
64210;SDS011;50528;48.514;14.394;2022-07-01T03:41:02;4.20;;;1.80;;
64210;SDS011;50528;48.514;14.394;2022-07-01T03:42:06;3.10;;;1.70;;
64210;SDS011;50528;48.514;14.394;2022-07-01T03:43:11;2.80;;;1.70;;
64210;SDS011;50528;48.514;14.394;2022-07-01T03:44:14;3.20;;;1.80;;
64210;SDS011;50528;48.514;14.394;2022-07-01T03:45:17;4.00;;;1.70;;
64210;SDS011;50528;48.514;14.394;2022-07-01T03:46:20;3.10;;;1.80;;
64210;SDS011;50528;48.514;14.394;2022-07-01T03:47:24;3.60;;;1.70;;
64210;SDS011;50528;48.514;14.394;2022-07-01T03:48:27;5.90;;;2.00;;
64210;SDS011;50528;48.514;14.394;2022-07-01T03:49:31;3.90;;;2.00;;
64210;SDS011;50528;48.514;14.394;2022-07-01T03:50:35;3.60;;;2.10;;
64210;SDS011;50528;48.514;14.394;2022-07-01T03:51:38;3.60;;;2.00;;
64210;SDS011;50528;48.514;14.394;2022-07-01T03:52:42;4.70;;;2.00;;
64210;SDS011;50528;48.514;14.394;2022-07-01T03:53:45;5.90;;;2.20;;
64210;SDS011;50528;48.514;14.394;2022-07-01T03:55:10;3.90;;;2.20;;
64210;SDS011;50528;48.514;14.394;2022-07-01T03:56:14;5.10;;;2.00;;
64210;SDS011;50528;48.514;14.394;2022-07-01T03:57:18;5.10;;;2.10;;
64210;SDS011;50528;48.514;14.394;2022-07-01T03:58:24;6.40;;;2.10;;
64210;SDS011;50528;48.514;14.394;2022-07-01T03:59:28;4.00;;;2.10;;
64210;SDS011;50528;48.514;14.394;2022-07-01T04:00:48;3.70;;;2.10;;
64210;SDS011;50528;48.514;14.394;2022-07-01T04:01:55;4.80;;;2.40;;
64210;SDS011;50528;48.514;14.394;2022-07-01T04:02:59;3.80;;;2.20;;
64210;SDS011;50528;48.514;14.394;2022-07-01T04:04:03;5.60;;;2.40;;
64210;SDS011;50528;48.514;14.394;2022-07-01T04:05:06;4.70;;;2.60;;
64210;SDS011;50528;48.514;14.394;2022-07-01T04:06:10;4.50;;;2.50;;
64210;SDS011;50528;48.514;14.394;2022-07-01T04:07:15;4.10;;;2.50;;
64210;SDS011;50528;48.514;14.394;2022-07-01T04:08:18;5.10;;;2.70;;
64210;SDS011;50528;48.514;14.394;2022-07-01T04:09:21;5.60;;;2.60;;
64210;SDS011;50528;48.514;14.394;2022-07-01T04:10:26;5.70;;;2.40;;
64210;SDS011;50528;48.514;14.394;2022-07-01T04:11:30;6.40;;;2.90;;
64210;SDS011;50528;48.514;14.394;2022-07-01T04:12:39;4.30;;;2.60;;
64210;SDS011;50528;48.514;14.394;2022-07-01T04:14:53;5.60;;;2.40;;
64210;SDS011;50528;48.514;14.394;2022-07-01T04:15:59;5.00;;;2.50;;
64210;SDS011;50528;48.514;14.394;2022-07-01T04:17:04;3.90;;;2.60;;
64210;SDS011;50528;48.514;14.394;2022-07-01T04:18:07;4.90;;;2.50;;
64210;SDS011;50528;48.514;14.394;2022-07-01T04:19:11;3.60;;;2.60;;
64210;SDS011;50528;48.514;14.394;2022-07-01T04:20:16;6.30;;;2.90;;
64210;SDS011;50528;48.514;14.394;2022-07-01T04:21:19;6.10;;;2.60;;
64210;SDS011;50528;48.514;14.394;2022-07-01T04:22:41;5.70;;;2.70;;
64210;SDS011;50528;48.514;14.394;2022-07-01T04:23:47;4.60;;;2.40;;
64210;SDS011;50528;48.514;14.394;2022-07-01T04:24:51;3.80;;;2.60;;
64210;SDS011;50528;48.514;14.394;2022-07-01T04:25:55;4.80;;;2.40;;
64210;SDS011;50528;48.514;14.394;2022-07-01T04:27:36;4.50;;;2.50;;
64210;SDS011;50528;48.514;14.394;2022-07-01T04:28:39;4.60;;;2.50;;
64210;SDS011;50528;48.514;14.394;2022-07-01T04:29:43;4.80;;;2.40;;
64210;SDS011;50528;48.514;14.394;2022-07-01T04:30:46;6.00;;;2.60;;
64210;SDS011;50528;48.514;14.394;2022-07-01T04:31:50;4.80;;;2.40;;
64210;SDS011;50528;48.514;14.394;2022-07-01T04:32:53;4.10;;;2.50;;
64210;SDS011;50528;48.514;14.394;2022-07-01T04:33:56;4.00;;;2.40;;
64210;SDS011;50528;48.514;14.394;2022-07-01T04:34:59;3.50;;;2.20;;
64210;SDS011;50528;48.514;14.394;2022-07-01T04:36:03;4.80;;;2.40;;
64210;SDS011;50528;48.514;14.394;2022-07-01T04:37:07;3.80;;;2.70;;
64210;SDS011;50528;48.514;14.394;2022-07-01T04:38:12;5.90;;;2.30;;
64210;SDS011;50528;48.514;14.394;2022-07-01T04:39:16;4.80;;;2.40;;
64210;SDS011;50528;48.514;14.394;2022-07-01T04:40:24;6.60;;;2.50;;
64210;SDS011;50528;48.514;14.394;2022-07-01T04:41:31;5.00;;;2.80;;
64210;SDS011;50528;48.514;14.394;2022-07-01T04:42:55;5.60;;;2.70;;
64210;SDS011;50528;48.514;14.394;2022-07-01T04:43:58;5.90;;;2.70;;
64210;SDS011;50528;48.514;14.394;2022-07-01T04:45:02;4.90;;;2.70;;
64210;SDS011;50528;48.514;14.394;2022-07-01T04:46:05;3.80;;;2.30;;
64210;SDS011;50528;48.514;14.394;2022-07-01T04:47:09;4.90;;;2.80;;
64210;SDS011;50528;48.514;14.394;2022-07-01T04:48:13;5.10;;;2.70;;
64210;SDS011;50528;48.514;14.394;2022-07-01T04:49:23;4.70;;;3.00;;
64210;SDS011;50528;48.514;14.394;2022-07-01T04:50:27;5.00;;;2.80;;
64210;SDS011;50528;48.514;14.394;2022-07-01T04:51:30;6.70;;;2.70;;
64210;SDS011;50528;48.514;14.394;2022-07-01T04:52:37;4.80;;;2.70;;
64210;SDS011;50528;48.514;14.394;2022-07-01T04:53:41;5.00;;;2.70;;
64210;SDS011;50528;48.514;14.394;2022-07-01T04:54:53;3.70;;;2.60;;
64210;SDS011;50528;48.514;14.394;2022-07-01T04:55:57;4.70;;;2.70;;
64210;SDS011;50528;48.514;14.394;2022-07-01T04:57:02;4.10;;;2.80;;
64210;SDS011;50528;48.514;14.394;2022-07-01T04:58:07;4.40;;;3.00;;
64210;SDS011;50528;48.514;14.394;2022-07-01T04:59:11;6.40;;;2.90;;
64210;SDS011;50528;48.514;14.394;2022-07-01T05:00:15;5.20;;;2.50;;
64210;SDS011;50528;48.514;14.394;2022-07-01T05:01:40;3.70;;;2.70;;
64210;SDS011;50528;48.514;14.394;2022-07-01T05:02:45;8.70;;;2.70;;
64210;SDS011;50528;48.514;14.394;2022-07-01T05:03:49;4.40;;;2.80;;
64210;SDS011;50528;48.514;14.394;2022-07-01T05:04:53;5.90;;;2.90;;
64210;SDS011;50528;48.514;14.394;2022-07-01T05:06:04;6.10;;;2.70;;
64210;SDS011;50528;48.514;14.394;2022-07-01T05:07:07;3.50;;;2.70;;
64210;SDS011;50528;48.514;14.394;2022-07-01T05:08:31;7.80;;;3.20;;
64210;SDS011;50528;48.514;14.394;2022-07-01T05:09:34;5.40;;;2.90;;
64210;SDS011;50528;48.514;14.394;2022-07-01T05:10:38;5.50;;;2.90;;
64210;SDS011;50528;48.514;14.394;2022-07-01T05:11:41;4.70;;;2.90;;
64210;SDS011;50528;48.514;14.394;2022-07-01T05:12:45;5.20;;;2.70;;
64210;SDS011;50528;48.514;14.394;2022-07-01T05:13:48;4.30;;;2.80;;
64210;SDS011;50528;48.514;14.394;2022-07-01T05:14:51;5.00;;;2.90;;
64210;SDS011;50528;48.514;14.394;2022-07-01T05:15:55;4.00;;;2.70;;
64210;SDS011;50528;48.514;14.394;2022-07-01T05:16:58;5.00;;;2.70;;
64210;SDS011;50528;48.514;14.394;2022-07-01T05:18:01;6.30;;;2.90;;
64210;SDS011;50528;48.514;14.394;2022-07-01T05:19:40;4.60;;;2.80;;
64210;SDS011;50528;48.514;14.394;2022-07-01T05:21:03;5.50;;;3.50;;
64210;SDS011;50528;48.514;14.394;2022-07-01T05:22:24;5.00;;;3.00;;
64210;SDS011;50528;48.514;14.394;2022-07-01T05:23:28;6.20;;;3.00;;
64210;SDS011;50528;48.514;14.394;2022-07-01T05:24:31;5.70;;;3.50;;
64210;SDS011;50528;48.514;14.394;2022-07-01T05:25:36;6.70;;;2.80;;
64210;SDS011;50528;48.514;14.394;2022-07-01T05:27:36;7.20;;;2.90;;
64210;SDS011;50528;48.514;14.394;2022-07-01T05:29:52;7.20;;;3.00;;
64210;SDS011;50528;48.514;14.394;2022-07-01T05:31:59;4.90;;;3.40;;
64210;SDS011;50528;48.514;14.394;2022-07-01T05:34:18;6.00;;;3.60;;
64210;SDS011;50528;48.514;14.394;2022-07-01T05:37:05;5.20;;;3.30;;
64210;SDS011;50528;48.514;14.394;2022-07-01T05:38:08;4.40;;;3.50;;
64210;SDS011;50528;48.514;14.394;2022-07-01T05:39:12;6.70;;;3.70;;
64210;SDS011;50528;48.514;14.394;2022-07-01T05:40:15;6.10;;;3.40;;
64210;SDS011;50528;48.514;14.394;2022-07-01T05:41:18;8.50;;;3.50;;
64210;SDS011;50528;48.514;14.394;2022-07-01T05:42:22;6.00;;;3.50;;
64210;SDS011;50528;48.514;14.394;2022-07-01T05:43:25;6.00;;;3.40;;
64210;SDS011;50528;48.514;14.394;2022-07-01T05:44:28;4.90;;;3.70;;
64210;SDS011;50528;48.514;14.394;2022-07-01T05:45:32;5.40;;;3.60;;
64210;SDS011;50528;48.514;14.394;2022-07-01T05:46:35;7.10;;;3.60;;
64210;SDS011;50528;48.514;14.394;2022-07-01T05:47:39;5.10;;;3.20;;
64210;SDS011;50528;48.514;14.394;2022-07-01T05:48:42;7.50;;;3.00;;
64210;SDS011;50528;48.514;14.394;2022-07-01T05:49:46;6.30;;;3.70;;
64210;SDS011;50528;48.514;14.394;2022-07-01T05:50:49;5.80;;;3.60;;
64210;SDS011;50528;48.514;14.394;2022-07-01T05:51:53;6.40;;;3.50;;
64210;SDS011;50528;48.514;14.394;2022-07-01T05:52:57;7.60;;;3.60;;
64210;SDS011;50528;48.514;14.394;2022-07-01T05:54:00;6.20;;;3.90;;
64210;SDS011;50528;48.514;14.394;2022-07-01T05:55:04;6.80;;;3.90;;
64210;SDS011;50528;48.514;14.394;2022-07-01T05:56:07;6.90;;;3.30;;
64210;SDS011;50528;48.514;14.394;2022-07-01T05:57:10;6.30;;;3.90;;
64210;SDS011;50528;48.514;14.394;2022-07-01T05:58:14;4.60;;;3.60;;
64210;SDS011;50528;48.514;14.394;2022-07-01T05:59:17;6.20;;;3.60;;
64210;SDS011;50528;48.514;14.394;2022-07-01T06:00:21;6.70;;;4.00;;
64210;SDS011;50528;48.514;14.394;2022-07-01T06:01:24;6.30;;;3.90;;
64210;SDS011;50528;48.514;14.394;2022-07-01T06:02:27;8.30;;;4.10;;
64210;SDS011;50528;48.514;14.394;2022-07-01T06:03:30;7.00;;;3.80;;
64210;SDS011;50528;48.514;14.394;2022-07-01T06:04:34;7.00;;;3.50;;
64210;SDS011;50528;48.514;14.394;2022-07-01T06:05:38;6.60;;;4.10;;
64210;SDS011;50528;48.514;14.394;2022-07-01T06:06:42;7.40;;;4.10;;
64210;SDS011;50528;48.514;14.394;2022-07-01T06:07:46;17.10;;;4.50;;
64210;SDS011;50528;48.514;14.394;2022-07-01T06:08:49;9.00;;;4.30;;
64210;SDS011;50528;48.514;14.394;2022-07-01T06:09:52;8.40;;;4.20;;
64210;SDS011;50528;48.514;14.394;2022-07-01T06:10:56;9.10;;;4.70;;
64210;SDS011;50528;48.514;14.394;2022-07-01T06:11:59;8.90;;;4.40;;
64210;SDS011;50528;48.514;14.394;2022-07-01T06:13:02;6.20;;;4.80;;
64210;SDS011;50528;48.514;14.394;2022-07-01T06:14:06;8.90;;;5.10;;
64210;SDS011;50528;48.514;14.394;2022-07-01T06:15:10;8.80;;;4.20;;
64210;SDS011;50528;48.514;14.394;2022-07-01T06:16:15;7.00;;;4.80;;
64210;SDS011;50528;48.514;14.394;2022-07-01T06:17:19;7.70;;;4.20;;
64210;SDS011;50528;48.514;14.394;2022-07-01T06:18:22;7.20;;;4.50;;
64210;SDS011;50528;48.514;14.394;2022-07-01T06:19:25;7.10;;;4.70;;
64210;SDS011;50528;48.514;14.394;2022-07-01T06:20:29;6.30;;;4.70;;
64210;SDS011;50528;48.514;14.394;2022-07-01T06:21:32;7.50;;;4.80;;
64210;SDS011;50528;48.514;14.394;2022-07-01T06:22:36;7.60;;;4.50;;
64210;SDS011;50528;48.514;14.394;2022-07-01T06:23:39;8.80;;;4.70;;
64210;SDS011;50528;48.514;14.394;2022-07-01T06:24:51;7.40;;;4.60;;
64210;SDS011;50528;48.514;14.394;2022-07-01T06:25:54;10.10;;;4.40;;
64210;SDS011;50528;48.514;14.394;2022-07-01T06:26:58;7.00;;;4.80;;
64210;SDS011;50528;48.514;14.394;2022-07-01T06:28:02;6.50;;;4.60;;
64210;SDS011;50528;48.514;14.394;2022-07-01T06:29:06;11.10;;;4.40;;
64210;SDS011;50528;48.514;14.394;2022-07-01T06:30:10;9.10;;;4.50;;
64210;SDS011;50528;48.514;14.394;2022-07-01T06:31:13;8.00;;;4.30;;
64210;SDS011;50528;48.514;14.394;2022-07-01T06:32:17;7.30;;;4.20;;
64210;SDS011;50528;48.514;14.394;2022-07-01T06:33:20;5.30;;;4.10;;
64210;SDS011;50528;48.514;14.394;2022-07-01T06:34:24;9.20;;;4.30;;
64210;SDS011;50528;48.514;14.394;2022-07-01T06:35:27;10.00;;;4.20;;
64210;SDS011;50528;48.514;14.394;2022-07-01T06:36:30;6.70;;;4.60;;
64210;SDS011;50528;48.514;14.394;2022-07-01T06:37:33;7.60;;;5.00;;
64210;SDS011;50528;48.514;14.394;2022-07-01T06:38:38;7.00;;;4.20;;
64210;SDS011;50528;48.514;14.394;2022-07-01T06:39:42;8.20;;;4.50;;
64210;SDS011;50528;48.514;14.394;2022-07-01T06:40:45;8.50;;;4.60;;
64210;SDS011;50528;48.514;14.394;2022-07-01T06:42:08;10.40;;;4.60;;
64210;SDS011;50528;48.514;14.394;2022-07-01T06:43:12;13.50;;;4.30;;